createdAt,value
2019-03-19T00:00:00.361Z,93.48
2019-03-19T00:02:33.340Z,93.87
2019-03-19T00:05:06.224Z,93.92
2019-03-19T00:07:38.791Z,93.74
2019-03-19T00:10:11.796Z,93.65
2019-03-19T00:12:44.445Z,93.82
2019-03-19T00:15:16.355Z,94.15
2019-03-19T00:17:49.157Z,94.31
2019-03-19T00:20:21.834Z,94.46
2019-03-19T00:22:56.119Z,94.73
2019-03-19T00:25:30.308Z,94.74
2019-03-19T00:28:03.315Z,94.86
2019-03-19T00:30:35.940Z,95.00
2019-03-19T00:33:08.976Z,95.25
2019-03-19T00:35:41.925Z,95.11
2019-03-19T00:38:14.521Z,95.12
2019-03-19T00:40:48.718Z,95.14
2019-03-19T00:43:21.314Z,95.03
2019-03-19T00:45:53.880Z,95.01
2019-03-19T00:48:26.631Z,95.12
2019-03-19T00:50:59.580Z,95.05
2019-03-19T00:53:32.200Z,95.03
2019-03-19T00:56:05.406Z,95.09
2019-03-19T00:58:38.949Z,95.38
2019-03-19T01:01:11.699Z,95.59
2019-03-19T01:03:45.013Z,95.49
2019-03-19T01:06:17.771Z,95.45
2019-03-19T01:08:50.347Z,95.52
2019-03-19T01:11:24.382Z,95.73
2019-03-19T01:13:57.967Z,95.67
2019-03-19T01:16:30.774Z,95.56
2019-03-19T01:19:04.325Z,95.98
2019-03-19T01:21:37.116Z,96.43
2019-03-19T01:24:09.629Z,96.39
2019-03-19T01:26:42.427Z,96.30
2019-03-19T01:29:15.254Z,96.29
2019-03-19T01:31:47.806Z,96.21
2019-03-19T01:34:20.785Z,96.40
2019-03-19T01:36:53.333Z,96.45
2019-03-19T01:39:25.927Z,96.33
2019-03-19T01:41:59.183Z,96.25
2019-03-19T01:44:32.431Z,96.06
2019-03-19T01:47:05.875Z,96.03
2019-03-19T01:49:38.764Z,96.04
2019-03-19T01:52:11.974Z,95.98
2019-03-19T01:54:44.370Z,96.07
2019-03-19T01:57:18.285Z,95.97
2019-03-19T01:59:52.015Z,96.08
2019-03-19T02:02:24.564Z,96.33
2019-03-19T02:04:57.967Z,96.70
2019-03-19T02:07:30.599Z,96.73
2019-03-19T02:10:03.294Z,96.74
2019-03-19T02:12:36.580Z,96.74
2019-03-19T02:15:12.930Z,96.86
2019-03-19T02:17:45.619Z,96.95
2019-03-19T02:20:18.445Z,96.99
2019-03-19T02:22:50.901Z,97.00
2019-03-19T02:25:23.725Z,97.21
2019-03-19T02:27:56.774Z,97.32
2019-03-19T02:30:29.402Z,97.19
2019-03-19T02:33:02.421Z,97.06
2019-03-19T02:35:36.375Z,97.22
2019-03-19T02:38:08.994Z,97.21
2019-03-19T02:40:41.583Z,97.07
2019-03-19T02:43:14.532Z,97.04
2019-03-19T02:45:47.116Z,97.23
2019-03-19T02:48:19.695Z,97.13
2019-03-19T02:50:52.571Z,97.05
2019-03-19T02:53:25.167Z,97.04
2019-03-19T02:55:57.607Z,97.06
2019-03-19T02:58:30.384Z,97.25
2019-03-19T03:01:03.319Z,97.55
2019-03-19T03:03:36.001Z,97.83
2019-03-19T03:06:08.994Z,97.58
2019-03-19T03:08:41.552Z,97.36
2019-03-19T03:11:14.033Z,97.14
2019-03-19T03:13:46.875Z,96.95
2019-03-19T03:16:19.690Z,96.90
2019-03-19T03:18:52.434Z,96.90
2019-03-19T03:21:25.154Z,96.87
2019-03-19T03:23:57.773Z,96.80
2019-03-19T03:26:30.364Z,96.82
2019-03-19T03:29:03.485Z,97.09
2019-03-19T03:31:36.473Z,97.10
2019-03-19T03:34:09.023Z,97.23
2019-03-19T03:36:41.807Z,97.30
2019-03-19T03:39:14.451Z,97.26
2019-03-19T03:41:46.997Z,97.21
2019-03-19T03:44:19.803Z,97.27
2019-03-19T03:46:52.364Z,97.39
2019-03-19T03:49:26.612Z,97.54
2019-03-19T03:52:00.217Z,97.51
2019-03-19T03:54:32.726Z,97.21
2019-03-19T03:57:06.849Z,97.42
2019-03-19T03:59:40.594Z,97.47
2019-03-19T04:02:13.145Z,97.33
2019-03-19T04:04:47.515Z,97.33
2019-03-19T04:07:21.595Z,97.29
2019-03-19T04:09:55.015Z,97.41
2019-03-19T04:12:27.492Z,97.59
2019-03-19T04:15:00.405Z,97.56
2019-03-19T04:17:35.208Z,97.52
2019-03-19T04:20:08.281Z,97.59
2019-03-19T04:22:42.413Z,97.63
2019-03-19T04:25:15.079Z,97.51
2019-03-19T04:27:47.675Z,97.55
2019-03-19T04:30:22.152Z,97.66
2019-03-19T04:32:54.780Z,97.82
2019-03-19T04:35:27.250Z,97.67
2019-03-19T04:38:00.038Z,97.71
2019-03-19T04:40:32.607Z,97.84
2019-03-19T04:43:05.078Z,97.83
2019-03-19T04:45:41.395Z,97.87
2019-03-19T04:48:14.733Z,97.96
2019-03-19T04:50:47.239Z,97.82
2019-03-19T04:53:24.141Z,97.65
2019-03-19T04:55:58.121Z,97.58
2019-03-19T04:58:30.658Z,97.56
2019-03-19T05:01:03.545Z,97.67
2019-03-19T05:03:36.053Z,97.73
2019-03-19T05:06:08.484Z,97.82
2019-03-19T05:08:42.421Z,97.88
2019-03-19T05:11:16.164Z,98.00
2019-03-19T05:13:51.409Z,98.17
2019-03-19T05:16:25.219Z,98.16
2019-03-19T05:18:57.784Z,98.32
2019-03-19T05:21:32.258Z,98.37
2019-03-19T05:24:04.977Z,98.15
2019-03-19T05:26:39.140Z,98.31
2019-03-19T05:29:11.699Z,98.33
2019-03-19T05:31:44.569Z,98.14
2019-03-19T05:34:17.104Z,97.98
2019-03-19T05:36:49.756Z,97.93
2019-03-19T05:39:23.713Z,97.71
2019-03-19T05:41:56.342Z,97.88
2019-03-19T05:44:28.850Z,97.87
2019-03-19T05:47:01.951Z,97.91
2019-03-19T05:49:35.897Z,98.28
2019-03-19T05:52:09.220Z,98.44
2019-03-19T05:54:43.486Z,98.49
2019-03-19T05:57:18.598Z,98.31
2019-03-19T05:59:51.919Z,98.27
2019-03-19T06:02:25.060Z,98.51
2019-03-19T06:04:58.685Z,98.50
2019-03-19T06:07:31.323Z,98.50
2019-03-19T06:10:05.150Z,98.57
2019-03-19T06:12:37.790Z,98.71
2019-03-19T06:15:10.476Z,99.09
2019-03-19T06:17:45.463Z,99.24
2019-03-19T06:20:18.138Z,99.24
2019-03-19T06:22:50.932Z,99.41
2019-03-19T06:25:24.772Z,99.61
2019-03-19T06:28:00.741Z,99.74
2019-03-19T06:30:33.833Z,99.67
2019-03-19T06:33:06.410Z,99.79
2019-03-19T06:35:39.018Z,99.93
2019-03-19T06:38:11.742Z,99.79
2019-03-19T06:40:45.221Z,99.63
2019-03-19T06:43:17.914Z,99.58
2019-03-19T06:45:53.977Z,99.59
2019-03-19T06:48:26.893Z,99.83
2019-03-19T06:51:04.078Z,100.00
2019-03-19T06:53:37.402Z,100.00
2019-03-19T06:56:10.432Z,100.00
2019-03-19T06:58:42.996Z,100.00
2019-03-19T07:01:17.504Z,100.00
2019-03-19T07:03:52.183Z,100.00
2019-03-19T07:06:25.015Z,100.00
2019-03-19T07:08:58.988Z,100.00
2019-03-19T07:11:33.383Z,100.00
2019-03-19T07:14:06.679Z,100.00
2019-03-19T07:16:40.813Z,100.00
2019-03-19T07:19:13.434Z,100.00
2019-03-19T07:21:46.905Z,100.00
2019-03-19T07:24:20.274Z,100.00
2019-03-19T07:26:52.814Z,100.00
2019-03-19T07:29:29.971Z,100.00
2019-03-19T07:32:02.500Z,100.00
2019-03-19T07:34:38.056Z,100.00
2019-03-19T07:37:10.975Z,100.00
2019-03-19T07:39:43.407Z,100.00
2019-03-19T07:42:17.134Z,100.00
2019-03-19T07:44:50.089Z,100.00
2019-03-19T07:47:24.446Z,100.00
2019-03-19T07:49:57.786Z,100.00
2019-03-19T07:52:30.290Z,100.00
2019-03-19T07:55:03.023Z,100.00
2019-03-19T07:57:37.591Z,100.00
2019-03-19T08:00:14.271Z,100.00
2019-03-19T08:02:48.714Z,100.00
2019-03-19T08:05:32.219Z,100.00
2019-03-19T08:08:06.571Z,100.00
2019-03-19T08:10:41.772Z,100.00
2019-03-19T08:13:14.887Z,100.00
2019-03-19T08:15:48.203Z,100.00
2019-03-19T08:18:29.650Z,100.00
2019-03-19T08:21:03.960Z,100.00
2019-03-19T08:23:39.517Z,100.00
2019-03-19T08:26:13.142Z,100.00
2019-03-19T08:28:55.075Z,100.00
2019-03-19T08:31:33.363Z,100.00
2019-03-19T08:34:07.453Z,100.00
2019-03-19T08:36:40.694Z,100.00
2019-03-19T08:39:15.656Z,100.00
2019-03-19T08:41:48.294Z,100.00
2019-03-19T08:44:27.688Z,98.57
2019-03-19T08:47:02.265Z,89.76
2019-03-19T08:49:39.455Z,84.85
2019-03-19T08:52:12.766Z,80.57
2019-03-19T08:54:45.373Z,80.11
2019-03-19T08:57:18.522Z,75.10
2019-03-19T08:59:59.531Z,74.53
2019-03-19T09:02:33.095Z,75.87
2019-03-19T09:05:10.680Z,71.80
2019-03-19T09:07:43.930Z,69.71
2019-03-19T09:10:23.560Z,68.93
2019-03-19T09:12:57.105Z,69.47
2019-03-19T09:15:33.042Z,70.48
2019-03-19T09:18:06.189Z,67.82
2019-03-19T09:20:39.180Z,68.11
2019-03-19T09:23:12.116Z,67.39
2019-03-19T09:25:46.415Z,64.53
2019-03-19T09:28:23.935Z,61.48
2019-03-19T09:30:58.639Z,61.28
2019-03-19T09:33:32.548Z,58.07
2019-03-19T09:36:29.709Z,57.10
2019-03-19T09:39:08.431Z,56.86
2019-03-19T09:41:41.773Z,56.66
2019-03-19T09:44:15.190Z,54.48
2019-03-19T09:46:47.861Z,53.65
2019-03-19T09:49:24.041Z,54.62
2019-03-19T09:51:56.856Z,53.64
2019-03-19T09:54:32.288Z,55.17
2019-03-19T09:57:04.866Z,52.83
2019-03-19T09:59:37.611Z,52.33
2019-03-19T10:02:12.336Z,51.85
2019-03-19T10:04:46.451Z,51.76
2019-03-19T10:07:19.046Z,50.63
2019-03-19T10:09:52.882Z,51.40
2019-03-19T10:12:26.744Z,48.91
2019-03-19T10:15:00.386Z,50.65
2019-03-19T10:17:36.729Z,49.70
2019-03-19T10:20:14.191Z,50.49
2019-03-19T10:22:48.691Z,49.84
2019-03-19T10:25:23.618Z,47.65
2019-03-19T10:27:58.640Z,46.46
2019-03-19T10:30:32.228Z,49.00
2019-03-19T10:33:07.315Z,48.66
2019-03-19T10:35:40.163Z,50.82
2019-03-19T10:38:12.724Z,50.73
2019-03-19T10:40:45.261Z,50.50
2019-03-19T10:43:18.218Z,51.67
2019-03-19T10:45:50.844Z,51.09
2019-03-19T10:48:23.500Z,50.94
2019-03-19T10:50:56.599Z,51.39
2019-03-19T10:53:30.435Z,52.20
2019-03-19T10:56:03.939Z,53.19
2019-03-19T10:58:37.606Z,53.21
2019-03-19T11:01:11.453Z,53.75
2019-03-19T11:03:44.771Z,52.74
2019-03-19T11:06:17.467Z,49.32
2019-03-19T11:08:49.836Z,48.70
2019-03-19T11:11:22.447Z,45.85
2019-03-19T11:13:55.391Z,44.65
2019-03-19T11:16:33.294Z,44.89
2019-03-19T11:19:07.383Z,44.72
2019-03-19T11:21:40.035Z,45.17
2019-03-19T11:24:14.151Z,45.59
2019-03-19T11:26:48.247Z,45.12
2019-03-19T11:29:20.650Z,44.83
2019-03-19T11:31:53.399Z,43.70
2019-03-19T11:34:26.823Z,44.27
2019-03-19T11:37:09.675Z,45.54
2019-03-19T11:39:44.270Z,47.13
2019-03-19T11:42:20.110Z,46.68
2019-03-19T11:44:54.831Z,45.76
2019-03-19T11:47:30.576Z,43.86
2019-03-19T11:50:03.728Z,42.97
2019-03-19T11:52:36.407Z,41.92
2019-03-19T11:55:11.779Z,42.17
2019-03-19T11:57:45.681Z,41.72
2019-03-19T12:00:43.989Z,40.96
2019-03-19T12:03:18.747Z,41.21
2019-03-19T12:05:52.323Z,41.60
2019-03-19T12:08:26.115Z,41.15
2019-03-19T12:11:00.330Z,41.37
2019-03-19T12:13:37.891Z,38.99
2019-03-19T12:16:10.986Z,39.67
2019-03-19T12:18:43.796Z,38.85
2019-03-19T12:21:16.283Z,38.68
2019-03-19T12:23:49.938Z,38.80
2019-03-19T12:26:23.147Z,39.19
2019-03-19T12:28:55.726Z,38.57
2019-03-19T12:31:28.228Z,38.60
2019-03-19T12:34:02.050Z,39.09
2019-03-19T12:36:36.433Z,37.28
2019-03-19T12:39:10.014Z,39.05
2019-03-19T12:41:48.509Z,38.85
2019-03-19T12:44:33.674Z,38.51
2019-03-19T12:47:07.354Z,38.71
2019-03-19T12:49:44.775Z,38.99
2019-03-19T12:52:19.869Z,37.84
2019-03-19T12:54:52.435Z,37.94
2019-03-19T12:57:25.608Z,37.96
2019-03-19T12:59:59.188Z,38.06
2019-03-19T13:02:34.859Z,39.94
2019-03-19T13:05:14.506Z,38.15
2019-03-19T13:07:49.924Z,37.85
2019-03-19T13:10:23.966Z,38.28
2019-03-19T13:12:57.221Z,38.24
2019-03-19T13:15:34.844Z,39.37
2019-03-19T13:18:08.891Z,38.31
2019-03-19T13:20:42.411Z,38.01
2019-03-19T13:23:18.143Z,38.23
2019-03-19T13:25:52.819Z,39.59
2019-03-19T13:28:25.349Z,39.88
2019-03-19T13:30:58.224Z,40.44
2019-03-19T13:33:36.482Z,39.60
2019-03-19T13:36:10.740Z,39.45
2019-03-19T13:38:53.111Z,38.87
2019-03-19T13:41:28.323Z,39.32
2019-03-19T13:44:01.138Z,38.67
2019-03-19T13:46:34.169Z,38.13
2019-03-19T13:49:07.230Z,36.82
2019-03-19T13:51:39.860Z,36.49
2019-03-19T13:54:12.670Z,35.68
2019-03-19T13:56:45.546Z,35.94
2019-03-19T13:59:20.656Z,37.00
2019-03-19T14:01:55.216Z,36.99
2019-03-19T14:04:28.755Z,37.99
2019-03-19T14:07:02.543Z,38.63
2019-03-19T14:09:35.120Z,37.00
2019-03-19T14:12:07.676Z,36.14
2019-03-19T14:14:42.918Z,35.65
2019-03-19T14:17:18.579Z,35.50
2019-03-19T14:19:51.394Z,35.73
2019-03-19T14:22:24.950Z,36.07
2019-03-19T14:24:58.801Z,36.88
2019-03-19T14:27:33.629Z,37.29
2019-03-19T14:30:13.025Z,37.80
2019-03-19T14:32:48.404Z,38.29
2019-03-19T14:35:22.770Z,39.04
2019-03-19T14:37:57.589Z,38.72
2019-03-19T14:40:30.506Z,38.99
2019-03-19T14:45:38.723Z,39.70
2019-03-19T14:48:11.439Z,39.88
2019-03-19T14:50:46.084Z,39.78
2019-03-19T14:53:20.276Z,39.45
2019-03-19T14:55:54.662Z,39.30
2019-03-19T14:58:32.854Z,39.82
2019-03-19T15:01:05.605Z,40.26
2019-03-19T15:03:38.144Z,40.80
2019-03-19T15:06:13.039Z,41.09
2019-03-19T15:08:49.144Z,41.07
2019-03-19T15:11:22.837Z,41.63
2019-03-19T15:14:01.664Z,41.63
2019-03-19T15:16:35.978Z,41.55
2019-03-19T15:19:08.473Z,41.89
2019-03-19T15:21:43.956Z,41.61
2019-03-19T15:24:16.520Z,41.89
2019-03-19T15:26:50.926Z,42.02
2019-03-19T15:29:25.610Z,42.24
2019-03-19T15:31:59.430Z,42.62
2019-03-19T15:34:35.410Z,43.17
2019-03-19T15:37:09.271Z,43.81
2019-03-19T15:39:43.882Z,44.20
2019-03-19T15:42:17.988Z,44.86
2019-03-19T15:44:53.995Z,45.37
2019-03-19T15:47:27.279Z,45.10
2019-03-19T15:50:00.780Z,45.06
2019-03-19T15:52:35.923Z,45.33
2019-03-19T15:55:13.535Z,46.04
2019-03-19T15:57:46.729Z,46.04
2019-03-19T16:00:29.975Z,46.14
2019-03-19T16:03:07.753Z,46.16
2019-03-19T16:05:43.927Z,46.37
2019-03-19T16:08:16.806Z,46.75
2019-03-19T16:10:53.265Z,46.71
2019-03-19T16:13:30.574Z,46.41
2019-03-19T16:16:05.270Z,46.49
2019-03-19T16:18:39.043Z,46.37
2019-03-19T16:21:16.235Z,46.43
2019-03-19T16:23:50.863Z,46.62
2019-03-19T16:26:24.696Z,46.98
2019-03-19T16:28:59.824Z,47.29
2019-03-19T16:31:35.252Z,47.39
2019-03-19T16:34:07.826Z,47.70
2019-03-19T16:36:41.080Z,48.04
2019-03-19T16:39:15.387Z,48.31
2019-03-19T16:41:49.873Z,48.19
2019-03-19T16:44:24.084Z,48.02
2019-03-19T16:47:00.086Z,47.86
2019-03-19T16:49:34.686Z,47.90
2019-03-19T16:52:08.568Z,48.13
2019-03-19T16:54:41.287Z,47.97
2019-03-19T16:57:19.290Z,47.75
2019-03-19T16:59:55.067Z,47.65
2019-03-19T17:02:36.700Z,47.65
2019-03-19T17:05:17.461Z,47.61
2019-03-19T17:07:51.534Z,47.56
2019-03-19T17:10:28.870Z,47.63
2019-03-19T17:13:01.424Z,47.90
2019-03-19T17:15:39.208Z,48.14
2019-03-19T17:18:15.095Z,48.39
2019-03-19T17:20:47.943Z,48.80
2019-03-19T17:23:25.177Z,49.38
2019-03-19T17:26:04.815Z,49.85
2019-03-19T17:28:42.099Z,50.23
2019-03-19T17:31:19.099Z,50.47
2019-03-19T17:33:56.734Z,51.38
2019-03-19T17:36:37.385Z,52.76
2019-03-19T17:39:13.809Z,54.28
2019-03-19T17:41:49.250Z,55.03
2019-03-19T17:44:24.452Z,57.47
2019-03-19T17:47:00.054Z,58.09
2019-03-19T17:49:36.419Z,58.43
2019-03-19T17:52:09.695Z,58.63
2019-03-19T17:54:45.193Z,59.28
2019-03-19T17:57:18.479Z,59.71
2019-03-19T17:59:52.777Z,59.89
2019-03-19T18:02:26.580Z,60.14
2019-03-19T18:05:06.637Z,60.81
2019-03-19T18:07:39.907Z,60.79
2019-03-19T18:10:12.765Z,61.28
2019-03-19T18:12:46.311Z,61.56
2019-03-19T18:15:22.381Z,61.74
2019-03-19T18:17:55.892Z,62.12
2019-03-19T18:20:30.442Z,62.89
2019-03-19T18:23:07.783Z,63.19
2019-03-19T18:25:46.005Z,63.65
2019-03-19T18:28:19.913Z,64.71
2019-03-19T18:30:54.415Z,65.02
2019-03-19T18:33:27.267Z,65.66
2019-03-19T18:36:02.239Z,66.97
2019-03-19T18:38:35.537Z,66.50
2019-03-19T18:41:09.893Z,66.97
2019-03-19T18:43:44.243Z,66.97
2019-03-19T18:46:22.116Z,67.26
2019-03-19T18:48:56.456Z,67.64
2019-03-19T18:51:30.940Z,68.62
2019-03-19T18:54:05.320Z,69.35
2019-03-19T18:56:39.055Z,71.21
2019-03-19T18:59:17.170Z,70.68
2019-03-19T19:01:51.076Z,70.35
2019-03-19T19:04:24.485Z,70.87
2019-03-19T19:06:58.084Z,70.86
2019-03-19T19:09:31.514Z,71.29
2019-03-19T19:12:04.685Z,71.48
2019-03-19T19:14:38.720Z,71.70
2019-03-19T19:17:13.213Z,72.10
2019-03-19T19:19:46.168Z,72.51
2019-03-19T19:22:18.792Z,72.89
2019-03-19T19:24:51.352Z,73.17
2019-03-19T19:27:24.691Z,73.53
2019-03-19T19:30:00.347Z,75.33
2019-03-19T19:32:36.530Z,76.03
2019-03-19T19:35:12.186Z,77.21
2019-03-19T19:37:47.050Z,77.38
2019-03-19T19:40:20.689Z,77.21
2019-03-19T19:42:55.529Z,78.20
2019-03-19T19:45:28.141Z,78.69
2019-03-19T19:48:01.483Z,78.67
2019-03-19T19:50:35.682Z,78.75
2019-03-19T19:53:08.920Z,78.78
2019-03-19T19:55:42.936Z,78.86
2019-03-19T19:58:18.846Z,79.87
2019-03-19T20:00:53.147Z,80.44
2019-03-19T20:03:26.614Z,80.65
2019-03-19T20:06:06.625Z,80.50
2019-03-19T20:08:42.336Z,80.64
2019-03-19T20:11:15.180Z,80.89
2019-03-19T20:13:49.508Z,81.40
2019-03-19T20:16:25.841Z,81.71
2019-03-19T20:19:04.029Z,81.89
2019-03-19T20:21:38.219Z,82.71
2019-03-19T20:24:13.876Z,82.96
2019-03-19T20:26:49.655Z,83.78
2019-03-19T20:29:26.773Z,83.95
2019-03-19T20:32:01.755Z,84.39
2019-03-19T20:34:39.315Z,84.65
2019-03-19T20:37:11.581Z,85.31
2019-03-19T20:39:44.136Z,85.77
2019-03-19T20:42:17.604Z,86.14
2019-03-19T20:44:53.022Z,86.34
2019-03-19T20:47:25.638Z,86.68
2019-03-19T20:50:02.590Z,86.78
2019-03-19T20:52:35.504Z,86.70
2019-03-19T20:55:09.073Z,86.94
2019-03-19T20:57:43.670Z,86.66
2019-03-19T21:00:19.793Z,87.26
2019-03-19T21:02:52.923Z,87.63
2019-03-19T21:05:26.578Z,87.70
2019-03-19T21:08:00.805Z,87.64
2019-03-19T21:10:35.389Z,87.74
2019-03-19T21:13:12.011Z,88.26
2019-03-19T21:15:45.610Z,88.72
2019-03-19T21:18:19.109Z,88.93
2019-03-19T21:20:53.963Z,89.37
2019-03-19T21:23:28.877Z,90.23
2019-03-19T21:26:03.324Z,90.65
2019-03-19T21:28:40.257Z,90.65
2019-03-19T21:31:17.858Z,90.83
2019-03-19T21:33:51.717Z,91.13
2019-03-19T21:36:27.532Z,91.38
2019-03-19T21:39:00.781Z,91.08
2019-03-19T21:41:36.024Z,91.32
2019-03-19T21:44:10.674Z,91.57
2019-03-19T21:46:45.603Z,92.05
2019-03-19T21:49:19.852Z,92.64
2019-03-19T21:51:52.869Z,92.50
2019-03-19T21:54:26.899Z,92.51
2019-03-19T21:57:00.920Z,92.50
2019-03-19T21:59:39.236Z,92.75
2019-03-19T22:02:13.569Z,92.73
2019-03-19T22:04:47.512Z,92.59
2019-03-19T22:07:20.730Z,92.59
2019-03-19T22:09:56.772Z,92.74
2019-03-19T22:12:29.984Z,92.77
2019-03-19T22:15:12.922Z,92.63
2019-03-19T22:17:46.590Z,92.58
2019-03-19T22:20:20.135Z,92.79
2019-03-19T22:22:53.761Z,93.12
2019-03-19T22:25:26.419Z,93.30
2019-03-19T22:27:59.038Z,93.58
2019-03-19T22:30:32.134Z,93.78
2019-03-19T22:33:06.207Z,94.47
2019-03-19T22:35:39.706Z,95.01
2019-03-19T22:38:13.796Z,94.85
2019-03-19T22:40:46.322Z,94.65
2019-03-19T22:43:19.628Z,94.86
2019-03-19T22:45:53.271Z,95.51
2019-03-19T22:48:27.014Z,96.13
2019-03-19T22:51:01.045Z,96.33
2019-03-19T22:53:34.032Z,96.40
2019-03-19T22:56:06.687Z,96.55
2019-03-19T22:58:39.526Z,96.65
2019-03-19T23:01:14.595Z,96.64
2019-03-19T23:03:47.222Z,96.65
2019-03-19T23:06:20.060Z,96.80
2019-03-19T23:08:53.932Z,97.14
2019-03-19T23:11:28.184Z,97.27
2019-03-19T23:14:02.234Z,97.27
2019-03-19T23:16:36.819Z,97.58
2019-03-19T23:19:09.537Z,97.76
2019-03-19T23:21:42.034Z,98.08
2019-03-19T23:24:14.972Z,97.96
2019-03-19T23:26:47.640Z,97.90
2019-03-19T23:29:20.341Z,98.23
2019-03-19T23:31:53.311Z,98.19
2019-03-19T23:34:25.878Z,97.93
2019-03-19T23:36:58.702Z,98.05
2019-03-19T23:39:31.635Z,97.84
2019-03-19T23:42:04.275Z,97.66
2019-03-19T23:44:37.445Z,97.50
2019-03-19T23:47:11.419Z,97.73
2019-03-19T23:49:44.053Z,97.77
2019-03-19T23:52:16.622Z,97.79
2019-03-19T23:54:51.539Z,97.89
2019-03-19T23:57:23.982Z,97.88
2019-03-19T23:59:57.094Z,97.94
